Time;durP1;ratioP1;P1;durP2;ratioP2;P2;SDS_P1;SDS_P2;PMS_P1;PMS_P2;Temp;Humidity;BMP_temperature;BMP_pressure;BME280_temperature;BME280_humidity;BME280_pressure;Samples;Min_cycle;Max_cycle;Signal;HPM_P1;HPM_P2
2021/01/02 00:00:49;;;;;;;21.90;10.25;;;;;;;2.99;56.83;100921.06;5000406;28;20030;-71
2021/01/02 00:03:37;;;;;;;21.70;9.95;;;;;;;2.55;58.17;100924.81;5004835;28;20034;-70
2021/01/02 00:06:12;;;;;;;23.17;10.25;;;;;;;2.71;57.15;100926.44;5020979;28;20040;-70
2021/01/02 00:08:38;;;;;;;23.85;10.65;;;;;;;2.71;57.59;100923.88;4995730;28;20105;-70
2021/01/02 00:11:27;;;;;;;23.33;10.77;;;;;;;2.81;56.93;100923.78;5004729;28;20046;-71
2021/01/02 00:14:04;;;;;;;29.17;11.27;;;;;;;2.74;57.59;100922.97;5009390;28;20046;-70
2021/01/02 00:16:39;;;;;;;16.40;8.32;;;;;;;2.53;58.07;100929.13;5005213;28;20048;-71
2021/01/02 00:19:31;;;;;;;18.33;9.63;;;;;;;2.70;57.58;100936.78;5010948;28;20058;-71
2021/01/02 00:22:10;;;;;;;19.25;10.30;;;;;;;2.73;57.27;100932.47;5011348;28;20033;-71
2021/01/02 00:24:49;;;;;;;18.20;9.23;;;;;;;2.49;58.19;100932.59;5000745;28;20034;-69
2021/01/02 00:27:24;;;;;;;23.52;11.13;;;;;;;2.46;57.94;100946.34;5004811;28;20035;-70
2021/01/02 00:29:59;;;;;;;22.02;11.57;;;;;;;2.26;59.04;100943.84;5005928;28;20690;-70
2021/01/02 00:32:37;;;;;;;22.65;10.02;;;;;;;2.48;58.10;100941.19;5004909;28;20030;-70
2021/01/02 00:35:16;;;;;;;22.60;10.60;;;;;;;2.71;57.09;100944.50;5008753;28;20049;-70
2021/01/02 00:37:44;;;;;;;19.48;8.98;;;;;;;2.68;57.09;100944.50;5003402;28;20041;-70
2021/01/02 00:40:16;;;;;;;25.00;10.43;;;;;;;2.47;57.68;100947.22;5004614;28;20066;-70
2021/01/02 00:42:47;;;;;;;21.45;10.40;;;;;;;2.75;56.92;100941.00;5001668;28;20087;-70
2021/01/02 00:45:15;;;;;;;22.65;10.00;;;;;;;2.84;56.89;100944.41;5005734;28;20426;-71
2021/01/02 00:47:42;;;;;;;22.48;10.40;;;;;;;2.56;57.74;100952.34;4999630;28;20435;-71
2021/01/02 00:50:11;;;;;;;19.23;9.65;;;;;;;2.26;58.90;100964.50;5006903;28;20034;-71
2021/01/02 00:52:45;;;;;;;21.23;11.13;;;;;;;2.90;56.99;100959.88;5003437;28;20057;-71
2021/01/02 00:55:25;;;;;;;22.38;10.20;;;;;;;2.34;58.33;100957.59;5004914;28;20492;-71
2021/01/02 00:58:10;;;;;;;20.88;10.45;;;;;;;2.94;56.93;100956.41;4991908;28;20629;-71
2021/01/02 01:00:41;;;;;;;19.73;11.02;;;;;;;2.98;56.49;100963.28;4994772;28;20065;-71
2021/01/02 01:03:49;;;;;;;21.80;10.60;;;;;;;2.71;57.53;100972.91;5010237;28;20049;-71
2021/01/02 01:06:16;;;;;;;19.45;10.57;;;;;;;2.79;57.26;100972.84;5003834;28;20034;-71
2021/01/02 01:08:45;;;;;;;23.65;9.55;;;;;;;2.98;56.76;100963.28;5002864;28;20025;-71
2021/01/02 01:11:13;;;;;;;20.35;9.73;;;;;;;3.03;56.28;100965.81;5005400;28;20041;-71
2021/01/02 01:13:40;;;;;;;21.05;10.52;;;;;;;2.82;56.86;100967.66;5004351;28;20475;-71
2021/01/02 01:16:07;;;;;;;19.95;10.15;;;;;;;2.44;57.97;100966.13;5003549;28;20037;-71
2021/01/02 01:18:51;;;;;;;21.60;11.00;;;;;;;2.78;57.31;100955.66;5004103;28;20117;-72
2021/01/02 01:21:20;;;;;;;27.40;11.07;;;;;;;2.68;57.58;100962.56;4997966;28;20045;-72
2021/01/02 01:24:12;;;;;;;24.85;11.02;;;;;;;2.85;57.08;100956.47;5004193;28;20034;-71
2021/01/02 01:26:50;;;;;;;27.08;12.13;;;;;;;2.33;58.46;100963.63;4999361;28;20034;-70
2021/01/02 01:29:26;;;;;;;19.38;10.25;;;;;;;1.93;59.32;100968.91;5020383;28;20044;-71
2021/01/02 01:31:56;;;;;;;25.13;10.57;;;;;;;2.27;58.65;100966.22;5005593;28;20045;-71
2021/01/02 01:34:24;;;;;;;20.77;10.95;;;;;;;2.35;58.45;100967.06;5004985;28;20038;-71
2021/01/02 01:36:50;;;;;;;20.70;10.68;;;;;;;2.65;57.01;100970.34;4999665;28;20022;-71
2021/01/02 01:39:19;;;;;;;20.25;10.02;;;;;;;2.81;56.73;100972.84;5005191;28;20026;-70
2021/01/02 01:41:45;;;;;;;25.73;10.05;;;;;;;2.10;58.52;100973.16;5000755;28;20042;-71
2021/01/02 01:44:29;;;;;;;16.90;9.00;;;;;;;2.63;57.38;100984.97;5009252;28;20061;-71
2021/01/02 01:47:10;;;;;;;20.65;9.93;;;;;;;2.44;57.49;100984.19;5001113;28;20399;-71
2021/01/02 01:49:38;;;;;;;22.45;10.70;;;;;;;2.76;56.37;100981.47;5002627;28;20054;-70
2021/01/02 01:52:11;;;;;;;22.27;10.90;;;;;;;2.75;56.29;100987.47;5004359;28;20041;-71
2021/01/02 01:55:05;;;;;;;22.58;10.95;;;;;;;2.67;56.76;100984.09;4999212;28;20554;-71
2021/01/02 01:57:38;;;;;;;19.70;9.68;;;;;;;2.46;57.61;100989.34;5002711;28;20037;-71
2021/01/02 02:00:17;;;;;;;20.48;9.50;;;;;;;2.74;56.47;100985.78;5004981;28;20031;-70
2021/01/02 02:02:46;;;;;;;22.85;9.00;;;;;;;2.62;56.67;100988.41;5002962;28;20046;-71
2021/01/02 02:05:13;;;;;;;22.08;9.60;;;;;;;2.90;55.93;100993.44;4995459;28;20139;-71
2021/01/02 02:08:01;;;;;;;24.52;10.38;;;;;;;2.88;55.90;101001.19;5001365;28;20030;-71
2021/01/02 02:10:47;;;;;;;20.88;9.88;;;;;;;2.92;56.00;100996.88;4989219;28;20126;-71
2021/01/02 02:13:15;;;;;;;18.90;10.50;;;;;;;2.46;57.38;100997.94;5004150;28;20041;-71
2021/01/02 02:15:48;;;;;;;22.98;9.82;;;;;;;2.66;57.13;101002.16;5017127;28;20487;-71
2021/01/02 02:18:19;;;;;;;23.98;12.75;;;;;;;1.93;59.25;101010.16;5001299;28;20080;-71
2021/01/02 02:20:52;;;;;;;22.45;11.15;;;;;;;2.52;57.74;101004.81;5001244;28;20034;-71
2021/01/02 02:23:23;;;;;;;16.92;9.55;;;;;;;2.49;58.02;101010.00;4998928;28;20041;-71
2021/01/02 02:26:02;;;;;;;13.75;7.15;;;;;;;2.44;58.21;101012.56;5000134;28;20088;-71
2021/01/02 02:28:56;;;;;;;19.77;10.35;;;;;;;2.61;57.68;101002.19;5001668;28;20021;-71
2021/01/02 02:31:25;;;;;;;23.90;10.20;;;;;;;2.48;58.13;100997.94;5002698;28;20631;-71
2021/01/02 02:33:58;;;;;;;20.33;10.07;;;;;;;2.79;57.38;100997.81;4981781;28;20034;-71
2021/01/02 02:36:25;;;;;;;18.88;10.18;;;;;;;2.97;57.03;101002.84;5001994;28;20045;-71
2021/01/02 02:38:52;;;;;;;20.15;10.40;;;;;;;3.08;56.35;101001.06;5018795;28;20026;-71
2021/01/02 02:41:22;;;;;;;23.90;10.65;;;;;;;2.74;57.76;100996.09;4999136;28;20034;-71
2021/01/02 02:43:53;;;;;;;19.88;10.40;;;;;;;2.75;58.07;100992.63;4998052;28;20026;-71
2021/01/02 02:46:20;;;;;;;20.40;10.50;;;;;;;2.72;57.84;100992.66;5006855;28;20145;-71
2021/01/02 02:48:48;;;;;;;21.27;11.02;;;;;;;2.18;59.71;100994.63;5002895;28;20042;-70
2021/01/02 02:51:16;;;;;;;19.00;10.18;;;;;;;2.60;58.84;100997.91;5003419;28;20494;-72
2021/01/02 02:53:42;;;;;;;22.67;11.32;;;;;;;2.63;58.41;100997.03;4998891;28;20034;-70
2021/01/02 02:56:07;;;;;;;19.90;10.02;;;;;;;2.97;57.72;100997.69;4990076;28;20042;-70
2021/01/02 02:58:33;;;;;;;19.83;10.65;;;;;;;2.42;58.80;100995.38;5004758;28;20096;-70
2021/01/02 03:00:58;;;;;;;19.30;10.35;;;;;;;2.76;58.33;100993.53;5000147;28;20030;-71
2021/01/02 03:03:26;;;;;;;21.20;11.85;;;;;;;2.68;58.53;100993.53;4996056;28;20034;-70
2021/01/02 03:05:56;;;;;;;22.00;10.80;;;;;;;2.80;58.06;100999.50;5002404;28;21435;-70
2021/01/02 03:08:23;;;;;;;19.50;10.98;;;;;;;3.03;57.14;101002.81;5003388;28;20552;-71
2021/01/02 03:10:49;;;;;;;19.42;11.00;;;;;;;2.93;58.04;101007.16;4998482;28;20038;-69
2021/01/02 03:13:14;;;;;;;21.08;9.98;;;;;;;3.17;57.07;101000.13;4989117;28;20072;-70
2021/01/02 03:15:41;;;;;;;23.60;10.93;;;;;;;2.98;57.59;101000.28;5002231;28;20042;-70
2021/01/02 03:18:07;;;;;;;21.58;10.98;;;;;;;3.13;57.01;100999.28;5003332;28;20121;-71
2021/01/02 03:20:32;;;;;;;22.15;10.40;;;;;;;2.87;57.85;100998.63;5001812;28;20720;-70
2021/01/02 03:22:58;;;;;;;22.38;10.63;;;;;;;2.40;59.15;101007.44;5001449;28;20027;-70
2021/01/02 03:25:23;;;;;;;24.15;11.63;;;;;;;2.33;59.31;101010.06;5002236;28;20129;-70
2021/01/02 03:27:56;;;;;;;21.65;11.95;;;;;;;2.37;59.08;101010.88;4999376;28;20022;-70
2021/01/02 03:30:23;;;;;;;20.00;10.75;;;;;;;2.34;59.37;101006.59;5009158;28;20048;-70
2021/01/02 03:32:49;;;;;;;28.42;11.25;;;;;;;2.84;57.39;101011.53;5000953;28;20593;-70
2021/01/02 03:35:16;;;;;;;22.02;10.68;;;;;;;2.67;58.07;101017.66;5003062;28;20109;-70
2021/01/02 03:37:45;;;;;;;19.70;10.40;;;;;;;2.91;57.30;101008.03;5011306;28;20065;-70
2021/01/02 03:40:12;;;;;;;19.45;10.73;;;;;;;3.04;56.94;101022.59;5000407;28;20076;-73
2021/01/02 03:42:45;;;;;;;22.80;10.85;;;;;;;3.16;56.78;101009.63;5000170;28;20088;-70
2021/01/02 03:45:13;;;;;;;23.30;11.13;;;;;;;3.00;57.03;101007.97;4999220;28;20045;-71
2021/01/02 03:47:43;;;;;;;19.17;9.98;;;;;;;2.79;57.69;101015.88;4998595;28;20392;-70
2021/01/02 03:50:09;;;;;;;22.77;11.52;;;;;;;2.98;57.04;101009.75;5001998;28;20033;-73
2021/01/02 03:52:38;;;;;;;20.17;10.52;;;;;;;2.63;58.10;101013.38;5000468;28;20030;-70
2021/01/02 03:55:09;;;;;;;17.75;10.57;;;;;;;2.91;57.36;101008.03;4997842;28;20687;-70
2021/01/02 03:57:35;;;;;;;22.15;10.75;;;;;;;2.87;57.60;100998.63;5012167;28;20114;-72
2021/01/02 04:00:02;;;;;;;23.83;11.20;;;;;;;2.60;57.94;101005.66;5001473;28;20587;-70
2021/01/02 04:02:30;;;;;;;22.45;11.30;;;;;;;2.91;56.98;101003.75;5000180;28;20107;-71
2021/01/02 04:04:56;;;;;;;24.58;11.77;;;;;;;2.81;57.18;101004.66;4998890;28;20477;-72
2021/01/02 04:07:21;;;;;;;22.75;11.57;;;;;;;2.73;57.62;101012.47;4999937;28;20033;-70
2021/01/02 04:09:46;;;;;;;23.30;10.73;;;;;;;2.81;57.09;101006.41;4984168;28;20053;-70
2021/01/02 04:12:12;;;;;;;26.20;10.93;;;;;;;2.87;56.87;101011.53;5007672;28;20034;-72
2021/01/02 04:14:37;;;;;;;20.27;10.75;;;;;;;2.81;56.90;101011.56;4997532;28;20046;-70
2021/01/02 04:17:04;;;;;;;26.45;11.68;;;;;;;2.65;57.04;101011.63;4998249;28;20030;-70
2021/01/02 04:19:32;;;;;;;19.73;11.25;;;;;;;2.06;58.96;101008.41;4998722;28;20084;-70
2021/01/02 04:21:58;;;;;;;21.92;10.88;;;;;;;2.43;57.22;101007.44;5000737;28;20533;-70
2021/01/02 04:24:23;;;;;;;19.63;9.57;;;;;;;2.06;57.63;101005.81;5000246;28;20065;-70
2021/01/02 04:26:49;;;;;;;18.45;10.43;;;;;;;2.44;56.36;101015.16;4997779;28;20053;-70
2021/01/02 04:29:14;;;;;;;21.55;10.25;;;;;;;2.19;57.27;101016.97;5001147;28;20033;-71
2021/01/02 04:31:40;;;;;;;21.52;10.45;;;;;;;2.07;58.27;101017.00;4997225;28;20030;-71
2021/01/02 04:34:09;;;;;;;19.70;10.10;;;;;;;2.22;57.78;101009.25;4989015;28;20034;-70
2021/01/02 04:36:35;;;;;;;21.40;10.15;;;;;;;2.48;57.34;101003.97;5000844;28;20037;-71
2021/01/02 04:39:01;;;;;;;18.23;10.45;;;;;;;2.24;58.38;101004.94;5001187;28;20029;-72
2021/01/02 04:41:26;;;;;;;23.38;11.23;;;;;;;2.67;56.94;101007.34;5002129;28;20034;-71
2021/01/02 04:43:53;;;;;;;24.40;9.80;;;;;;;2.76;57.02;101011.59;4999793;28;20041;-70
2021/01/02 04:46:20;;;;;;;20.52;11.27;;;;;;;2.70;57.38;101009.88;4983921;28;20297;-70
2021/01/02 04:48:48;;;;;;;19.70;11.02;;;;;;;2.80;56.75;101015.00;4993916;28;20022;-70
2021/01/02 04:51:15;;;;;;;25.25;11.63;;;;;;;2.88;56.62;101015.81;4997095;28;20049;-72
2021/01/02 04:53:40;;;;;;;22.15;10.38;;;;;;;2.45;58.16;101018.63;5014951;28;20180;-70
2021/01/02 04:56:08;;;;;;;22.45;11.45;;;;;;;2.66;57.80;101018.50;5000477;28;20058;-72
2021/01/02 04:58:42;;;;;;;19.23;9.85;;;;;;;1.78;60.08;101030.81;5001962;28;20041;-70
2021/01/02 05:01:09;;;;;;;25.23;12.73;;;;;;;2.89;57.44;101025.25;5005860;28;20030;-70
2021/01/02 05:03:35;;;;;;;25.42;11.20;;;;;;;2.39;59.09;101026.38;5001744;28;20061;-69
2021/01/02 05:06:02;;;;;;;22.45;11.13;;;;;;;2.43;58.82;101031.50;5002576;28;20418;-71
2021/01/02 05:08:29;;;;;;;28.40;11.15;;;;;;;2.54;58.80;101034.06;5009336;28;20032;-70
2021/01/02 05:10:57;;;;;;;17.92;10.55;;;;;;;2.60;58.09;101033.16;5003058;28;20042;-70
2021/01/02 05:13:27;;;;;;;21.58;10.75;;;;;;;2.59;58.20;101037.47;5006126;28;20034;-70
2021/01/02 05:15:53;;;;;;;20.92;11.02;;;;;;;2.47;58.72;101037.53;5002830;28;20121;-71
2021/01/02 05:18:19;;;;;;;21.60;11.50;;;;;;;2.34;59.10;101041.88;5008181;28;20072;-70
2021/01/02 05:20:44;;;;;;;18.77;11.18;;;;;;;2.66;58.05;101044.31;4999639;28;20037;-70
2021/01/02 05:23:10;;;;;;;19.90;11.88;;;;;;;2.78;58.07;101035.69;5000383;28;20037;-71
2021/01/02 05:25:36;;;;;;;18.55;10.45;;;;;;;2.84;57.66;101039.94;5004306;28;20186;-70
2021/01/02 05:28:03;;;;;;;27.27;11.35;;;;;;;2.89;57.23;101035.59;5004211;28;20082;-72
2021/01/02 05:30:34;;;;;;;21.25;11.00;;;;;;;2.84;57.37;101043.38;5005727;28;21013;-71
2021/01/02 05:33:04;;;;;;;15.27;7.70;;;;;;;2.99;57.23;101042.44;5007024;28;20068;-70
2021/01/02 05:35:50;;;;;;;27.30;11.20;;;;;;;3.03;56.71;101049.31;5008845;28;20041;-70
2021/01/02 05:38:23;;;;;;;24.95;10.77;;;;;;;3.16;56.52;101045.78;5020324;28;20124;-71
2021/01/02 05:40:50;;;;;;;20.95;10.60;;;;;;;2.57;57.51;101050.38;5006158;28;20040;-72
2021/01/02 05:43:18;;;;;;;21.05;11.23;;;;;;;2.97;57.22;101050.19;5006693;28;20030;-71
2021/01/02 05:45:44;;;;;;;21.38;9.88;;;;;;;2.30;59.10;101055.63;5001273;28;20107;-71
2021/01/02 05:48:20;;;;;;;19.73;10.50;;;;;;;2.25;59.33;101049.63;5006672;28;20022;-70
2021/01/02 05:50:58;;;;;;;21.30;11.15;;;;;;;2.55;58.04;101062.44;5017070;28;20100;-70
2021/01/02 05:53:26;;;;;;;20.00;9.98;;;;;;;2.92;57.52;101057.09;4984737;28;20038;-73
2021/01/02 05:56:05;;;;;;;19.30;11.07;;;;;;;2.61;58.00;101060.69;5004840;28;20030;-71
2021/01/02 05:58:34;;;;;;;21.63;10.18;;;;;;;2.82;57.75;101060.59;5004926;28;20056;-72
2021/01/02 06:01:09;;;;;;;27.48;10.40;;;;;;;2.59;58.29;101068.44;5004019;28;20255;-71
2021/01/02 06:03:37;;;;;;;23.33;11.25;;;;;;;2.48;58.30;101063.31;5000810;28;20030;-71
2021/01/02 06:06:13;;;;;;;19.73;10.55;;;;;;;3.03;57.37;101064.78;4991410;28;20033;-71
2021/01/02 06:08:46;;;;;;;19.05;9.90;;;;;;;3.01;57.33;101063.09;5002910;28;20042;-72
2021/01/02 06:11:11;;;;;;;20.38;10.95;;;;;;;3.05;57.06;101059.63;5010843;28;20038;-71
2021/01/02 06:13:40;;;;;;;17.85;9.27;;;;;;;3.31;56.31;101062.06;5002823;28;20044;-70
2021/01/02 06:16:08;;;;;;;21.88;10.48;;;;;;;2.88;57.66;101055.41;5005636;28;20443;-71
2021/01/02 06:18:38;;;;;;;20.85;11.55;;;;;;;2.25;59.21;101068.53;5018416;28;20182;-71
2021/01/02 06:21:06;;;;;;;23.73;11.25;;;;;;;2.43;58.99;101065.06;4999630;28;20057;-71
2021/01/02 06:23:34;;;;;;;24.92;11.07;;;;;;;2.56;58.57;101060.72;4987343;28;20029;-71
2021/01/02 06:26:00;;;;;;;22.70;9.95;;;;;;;2.85;57.68;101059.75;5002580;28;20030;-72
2021/01/02 06:28:26;;;;;;;20.70;9.40;;;;;;;3.10;57.05;101063.03;5004817;28;20518;-70
2021/01/02 06:31:00;;;;;;;22.50;10.27;;;;;;;2.45;58.90;101067.63;5003454;28;20573;-72
2021/01/02 06:33:27;;;;;;;18.38;9.30;;;;;;;2.70;58.17;101071.81;5002313;28;20026;-71
2021/01/02 06:35:53;;;;;;;21.23;10.32;;;;;;;2.36;59.13;101071.09;5020601;28;20610;-72
2021/01/02 06:38:18;;;;;;;20.17;11.18;;;;;;;2.56;59.01;101073.63;5002424;28;20034;-70
2021/01/02 06:40:47;;;;;;;17.00;9.32;;;;;;;2.59;58.57;101071.00;4999384;28;20042;-70
2021/01/02 06:43:14;;;;;;;16.27;9.30;;;;;;;3.01;57.13;101074.28;5004191;28;20084;-72
2021/01/02 06:45:39;;;;;;;18.98;10.02;;;;;;;2.40;58.70;101071.94;5014338;28;20068;-71
2021/01/02 06:48:17;;;;;;;24.70;10.55;;;;;;;1.92;60.18;101077.19;5001758;28;20105;-71
2021/01/02 06:50:50;;;;;;;21.75;10.77;;;;;;;2.95;57.36;101082.03;4999940;28;20050;-71
2021/01/02 06:53:37;;;;;;;20.38;10.85;;;;;;;2.82;57.39;101080.38;5002190;28;20479;-70
2021/01/02 06:56:07;;;;;;;18.08;10.82;;;;;;;2.65;58.07;101091.66;5003869;28;20211;-70
2021/01/02 06:58:37;;;;;;;21.45;11.23;;;;;;;2.41;58.79;101086.56;5001080;28;20730;-71
2021/01/02 07:01:07;;;;;;;18.83;9.82;;;;;;;2.73;57.75;101084.75;5000754;28;20120;-70
2021/01/02 07:03:38;;;;;;;16.33;9.63;;;;;;;2.96;57.50;101088.94;4996560;28;20081;-72
2021/01/02 07:06:26;;;;;;;16.80;11.38;;;;;;;2.77;57.96;101090.72;4989148;28;20536;-69
2021/01/02 07:08:55;;;;;;;18.40;10.40;;;;;;;3.14;57.00;101096.59;5008373;28;20732;-72
2021/01/02 07:11:33;;;;;;;17.25;9.88;;;;;;;3.08;57.14;101094.03;5002926;28;20045;-69
2021/01/02 07:14:14;;;;;;;20.20;10.07;;;;;;;2.43;58.38;101097.75;5001359;28;20041;-70
2021/01/02 07:16:43;;;;;;;19.02;9.48;;;;;;;2.92;57.66;101097.56;4999879;28;20125;-70
2021/01/02 07:19:37;;;;;;;31.38;10.13;;;;;;;2.94;57.44;101103.56;5002554;28;20092;-73
2021/01/02 07:22:16;;;;;;;18.60;10.60;;;;;;;2.84;57.66;101109.63;4996221;28;20038;-72
2021/01/02 07:24:48;;;;;;;22.15;9.48;;;;;;;3.11;56.75;101109.53;5017968;28;20101;-71
2021/01/02 07:27:19;;;;;;;18.42;10.05;;;;;;;3.08;56.80;101114.69;5005617;28;20037;-69
2021/01/02 07:29:50;;;;;;;16.42;9.35;;;;;;;3.03;57.08;101121.59;4998260;28;20038;-71
2021/01/02 07:32:18;;;;;;;15.43;9.98;;;;;;;3.15;56.29;101116.38;5000814;28;20049;-71
2021/01/02 07:34:48;;;;;;;17.13;9.63;;;;;;;3.29;56.33;101128.38;4999559;28;20081;-71
2021/01/02 07:37:17;;;;;;;19.58;9.43;;;;;;;3.14;56.39;101121.56;5002649;28;20025;-73
2021/01/02 07:40:14;;;;;;;15.68;9.32;;;;;;;3.36;56.15;101124.91;5001167;28;20120;-70
2021/01/02 07:42:51;;;;;;;18.52;8.57;;;;;;;3.04;57.00;101137.97;4996746;28;20046;-73
2021/01/02 07:45:20;;;;;;;20.05;9.05;;;;;;;3.27;56.66;101141.28;5000816;28;20076;-71
2021/01/02 07:47:51;;;;;;;17.55;9.95;;;;;;;3.39;56.01;101137.81;4982454;28;20096;-71
2021/01/02 07:50:18;;;;;;;21.00;10.65;;;;;;;3.10;56.42;101141.38;4998960;28;20038;-71
2021/01/02 07:52:57;;;;;;;17.85;9.30;;;;;;;3.03;56.98;101147.44;4995511;28;20467;-72
2021/01/02 07:55:25;;;;;;;16.92;9.75;;;;;;;3.30;56.03;101154.22;4987423;28;20484;-72
2021/01/02 07:57:51;;;;;;;21.50;10.82;;;;;;;3.47;55.83;101155.84;5014782;28;20058;-71
2021/01/02 08:00:17;;;;;;;19.83;9.98;;;;;;;3.54;55.63;101153.22;5000981;28;20121;-71
2021/01/02 08:02:42;;;;;;;14.93;9.60;;;;;;;3.62;55.39;101162.66;4996124;28;20039;-72
2021/01/02 08:05:20;;;;;;;19.50;9.30;;;;;;;3.21;56.61;101156.81;5000873;28;20459;-71
2021/01/02 08:07:55;;;;;;;23.17;9.95;;;;;;;3.29;55.83;101167.13;4999557;28;20399;-72
2021/01/02 08:10:21;;;;;;;18.92;9.73;;;;;;;3.09;56.97;101165.50;5000425;28;20104;-70
2021/01/02 08:12:50;;;;;;;24.80;11.50;;;;;;;3.15;57.08;101173.19;4996420;28;20039;-71
2021/01/02 08:15:29;;;;;;;15.73;8.40;;;;;;;3.32;56.19;101169.72;5002685;28;20033;-71
2021/01/02 08:18:00;;;;;;;20.30;9.75;;;;;;;3.27;56.45;101182.63;5014596;28;20434;-71
2021/01/02 08:20:25;;;;;;;16.48;9.98;;;;;;;2.94;57.13;101181.03;5000871;28;20479;-72
2021/01/02 08:22:52;;;;;;;25.40;10.13;;;;;;;2.92;57.53;101185.34;5016569;28;20031;-70
2021/01/02 08:25:18;;;;;;;21.80;9.50;;;;;;;2.83;57.42;101193.13;5001382;28;20446;-71
2021/01/02 08:27:45;;;;;;;19.92;10.40;;;;;;;2.83;57.52;101190.53;4987121;28;20042;-71
2021/01/02 08:30:12;;;;;;;16.73;9.88;;;;;;;3.04;56.84;101185.28;5015679;28;20449;-71
2021/01/02 08:32:59;;;;;;;22.70;11.23;;;;;;;2.59;58.46;101186.28;5000539;28;20041;-71
2021/01/02 08:35:28;;;;;;;22.35;9.77;;;;;;;2.52;58.65;101195.75;5004059;28;20063;-70
2021/01/02 08:38:03;;;;;;;26.70;9.70;;;;;;;3.03;57.22;101193.91;5007331;28;20033;-71
2021/01/02 08:40:29;;;;;;;27.83;10.73;;;;;;;2.54;58.48;101201.78;5005126;28;20030;-70
2021/01/02 08:42:54;;;;;;;21.98;11.27;;;;;;;2.70;58.12;101200.03;5002158;28;20522;-71
2021/01/02 08:45:33;;;;;;;22.95;9.00;;;;;;;2.44;58.29;101197.47;5004529;28;20044;-72
2021/01/02 08:48:07;;;;;;;17.30;9.93;;;;;;;2.75;57.90;101203.44;4995234;28;20030;-73
2021/01/02 08:50:33;;;;;;;24.75;9.50;;;;;;;2.77;57.74;101205.16;5003070;28;20093;-71
2021/01/02 08:52:59;;;;;;;17.20;9.38;;;;;;;2.73;57.97;101208.63;5002326;28;20029;-71
2021/01/02 08:55:28;;;;;;;19.15;9.85;;;;;;;3.07;57.00;101212.81;5001377;28;20083;-70
2021/01/02 08:57:54;;;;;;;19.10;9.75;;;;;;;3.23;56.57;101216.25;5005629;28;20048;-70
2021/01/02 09:00:23;;;;;;;20.70;8.93;;;;;;;2.60;58.11;101214.69;5006263;28;20517;-70
2021/01/02 09:03:03;;;;;;;18.83;9.20;;;;;;;2.87;57.26;101223.25;5003982;28;20026;-71
2021/01/02 09:05:38;;;;;;;16.45;9.68;;;;;;;2.88;57.57;101227.53;5000381;28;20688;-71
2021/01/02 09:08:09;;;;;;;18.15;8.65;;;;;;;3.26;56.44;101221.38;5003783;28;20045;-70
2021/01/02 09:10:41;;;;;;;19.42;9.30;;;;;;;2.54;58.63;101230.16;5001809;28;20038;-72
2021/01/02 09:13:08;;;;;;;16.98;9.23;;;;;;;2.98;57.15;101226.66;5004960;28;20045;-70
2021/01/02 09:15:49;;;;;;;21.67;9.43;;;;;;;2.92;57.27;101232.69;4999876;28;20514;-70
2021/01/02 09:18:23;;;;;;;18.40;9.70;;;;;;;2.90;57.34;101236.13;5002308;28;20050;-70
2021/01/02 09:20:49;;;;;;;19.25;7.60;;;;;;;2.50;58.06;101234.44;4997427;28;20083;-70
2021/01/02 09:23:27;;;;;;;18.58;9.80;;;;;;;2.70;57.76;101237.00;5004353;28;20030;-70
2021/01/02 09:25:53;;;;;;;14.85;7.85;;;;;;;2.95;57.01;101236.97;5001120;28;20042;-70
2021/01/02 09:28:18;;;;;;;19.92;9.30;;;;;;;3.34;56.35;101240.34;5003818;28;20503;-71
2021/01/02 09:30:45;;;;;;;20.00;7.57;;;;;;;3.27;56.13;101243.75;5006912;28;20531;-70
2021/01/02 09:33:12;;;;;;;15.00;7.95;;;;;;;3.28;56.51;101237.75;5004525;28;20076;-70
2021/01/02 09:35:39;;;;;;;18.17;8.57;;;;;;;3.30;56.40;101248.97;5002415;28;20026;-70
2021/01/02 09:38:04;;;;;;;13.48;8.30;;;;;;;3.33;56.12;101246.34;5002113;28;20037;-72
2021/01/02 09:40:32;;;;;;;18.50;9.23;;;;;;;2.27;58.82;101256.81;4998790;28;20474;-70
2021/01/02 09:42:58;;;;;;;17.63;8.48;;;;;;;2.66;58.17;101253.38;4988547;28;20472;-71
2021/01/02 09:45:24;;;;;;;17.98;9.90;;;;;;;2.95;57.89;101257.63;4983661;28;20030;-71
2021/01/02 09:47:49;;;;;;;14.75;7.95;;;;;;;3.08;57.18;101254.16;5005405;28;20153;-71
2021/01/02 09:50:15;;;;;;;20.30;8.75;;;;;;;2.54;57.86;101261.97;5007515;28;20492;-71
2021/01/02 09:52:40;;;;;;;17.77;7.22;;;;;;;3.33;56.76;101261.84;5006353;28;20403;-72
2021/01/02 09:55:06;;;;;;;18.17;8.00;;;;;;;3.50;55.94;101272.13;5004294;28;20099;-70
2021/01/02 09:57:32;;;;;;;17.27;7.20;;;;;;;2.38;59.01;101265.44;4997912;28;20038;-71
2021/01/02 09:59:57;;;;;;;14.77;6.95;;;;;;;2.66;58.50;101266.28;5002853;28;20030;-70
2021/01/02 10:02:23;;;;;;;21.88;9.05;;;;;;;3.21;57.33;101267.03;5003635;28;20104;-70
2021/01/02 10:04:49;;;;;;;12.73;7.70;;;;;;;3.50;56.92;101273.00;5002086;28;20543;-70
2021/01/02 10:07:17;;;;;;;17.52;8.25;;;;;;;3.43;57.25;101275.63;5003780;28;20033;-70
2021/01/02 10:09:47;;;;;;;21.48;9.48;;;;;;;3.07;58.23;101274.81;4994429;28;20048;-70
2021/01/02 10:12:15;;;;;;;16.35;7.13;;;;;;;3.59;56.64;101272.94;5001965;28;20037;-70
2021/01/02 10:14:41;;;;;;;19.20;8.60;;;;;;;3.26;57.22;101278.22;5013361;28;20038;-70
2021/01/02 10:17:08;;;;;;;16.52;8.13;;;;;;;3.08;57.64;101279.97;4987942;28;20169;-70
2021/01/02 10:19:35;;;;;;;16.17;8.75;;;;;;;3.05;58.15;101277.41;4999948;28;20559;-72
2021/01/02 10:22:01;;;;;;;18.60;7.63;;;;;;;3.23;57.34;101273.06;5001951;28;20030;-70
2021/01/02 10:24:28;;;;;;;17.88;7.70;;;;;;;2.97;58.01;101277.41;5000550;28;20037;-70
2021/01/02 10:26:53;;;;;;;17.85;7.55;;;;;;;3.02;58.59;101284.28;5005225;28;20084;-70
2021/01/02 10:29:19;;;;;;;17.58;8.07;;;;;;;3.03;58.12;101273.97;5004200;28;20034;-70
2021/01/02 10:31:44;;;;;;;17.77;8.05;;;;;;;3.40;56.93;101279.06;5001347;28;20040;-70
2021/01/02 10:34:10;;;;;;;18.80;8.00;;;;;;;3.55;56.79;101276.41;5001869;28;20034;-71
2021/01/02 10:36:36;;;;;;;17.17;8.18;;;;;;;3.74;56.67;101281.53;5001778;28;20100;-70
2021/01/02 10:39:02;;;;;;;13.68;7.45;;;;;;;3.56;56.48;101272.97;5002608;28;20058;-70
2021/01/02 10:41:28;;;;;;;14.48;6.32;;;;;;;3.78;56.44;101280.59;4997140;28;20038;-70
2021/01/02 10:43:54;;;;;;;21.83;8.65;;;;;;;3.66;56.64;101272.94;4999428;28;20045;-70
2021/01/02 10:46:19;;;;;;;25.30;11.50;;;;;;;3.18;57.40;101271.34;5003745;28;20053;-72
2021/01/02 10:48:45;;;;;;;15.93;7.57;;;;;;;3.62;57.16;101273.81;4998952;28;20081;-71
2021/01/02 10:51:15;;;;;;;18.38;7.95;;;;;;;3.43;57.27;101276.47;5001305;28;20699;-70
2021/01/02 10:53:40;;;;;;;17.08;7.38;;;;;;;3.03;58.14;101273.97;5003157;28;20405;-71
2021/01/02 10:56:14;;;;;;;14.35;7.43;;;;;;;3.73;56.78;101272.03;4998166;28;20072;-71
2021/01/02 10:58:39;;;;;;;15.48;7.07;;;;;;;3.84;56.34;101283.16;4996574;28;20029;-72
2021/01/02 11:01:05;;;;;;;17.05;8.25;;;;;;;4.01;55.92;101278.75;4993129;28;20037;-71
2021/01/02 11:03:33;;;;;;;16.65;7.18;;;;;;;3.88;56.39;101277.13;5001510;28;20049;-71
2021/01/02 11:06:06;;;;;;;13.23;7.57;;;;;;;3.77;56.05;101279.75;5000116;28;20044;-71
2021/01/02 11:08:33;;;;;;;15.57;7.32;;;;;;;3.82;56.52;101279.72;5015846;28;20588;-72
2021/01/02 11:10:59;;;;;;;19.27;7.45;;;;;;;3.75;56.30;101280.63;5000648;28;20033;-71
2021/01/02 11:13:25;;;;;;;23.10;7.75;;;;;;;3.28;57.25;101273.91;5001857;28;20041;-71
2021/01/02 11:15:50;;;;;;;15.95;7.72;;;;;;;3.59;56.67;101272.94;5020722;28;20025;-71
2021/01/02 11:18:16;;;;;;;17.40;7.85;;;;;;;3.67;57.22;101277.22;4998919;28;20706;-71
2021/01/02 11:20:41;;;;;;;24.17;8.40;;;;;;;3.56;57.01;101272.97;5006679;28;20132;-71
2021/01/02 11:23:07;;;;;;;15.80;7.88;;;;;;;3.59;56.83;101280.69;4994791;28;20033;-71
2021/01/02 11:25:32;;;;;;;17.77;7.88;;;;;;;3.58;57.50;101276.41;4999090;28;20026;-72
2021/01/02 11:27:58;;;;;;;19.92;8.10;;;;;;;3.43;57.87;101273.88;5002873;28;20460;-71
2021/01/02 11:30:24;;;;;;;16.35;7.82;;;;;;;3.29;58.19;101273.06;5000282;28;20045;-71
2021/01/02 11:32:50;;;;;;;14.50;7.72;;;;;;;3.66;57.29;101273.78;5000326;28;20038;-71
2021/01/02 11:35:16;;;;;;;23.15;8.75;;;;;;;3.57;57.13;101272.09;5001088;28;20029;-71